Time;durP1;ratioP1;P1;durP2;ratioP2;P2;SDS_P1;SDS_P2;PMS_P1;PMS_P2;Temp;Humidity;BMP_temperature;BMP_pressure;BME280_temperature;BME280_humidity;BME280_pressure;Samples;Min_cycle;Max_cycle;Signal;HPM_P1;HPM_P2
2023/10/15 00:02:04;;;;;;;7.03;1.70;;;3.70;99.90;;;;;;4956592;29;20027;-93
2023/10/15 00:04:30;;;;;;;7.78;1.25;;;3.70;99.90;;;;;;4956436;29;20043;-94
2023/10/15 00:06:55;;;;;;;5.28;1.70;;;3.60;99.90;;;;;;4956151;29;20027;-94
2023/10/15 00:09:21;;;;;;;6.45;1.50;;;3.60;99.90;;;;;;4960138;28;20480;-94
2023/10/15 00:11:47;;;;;;;6.05;1.30;;;3.60;99.90;;;;;;4962627;29;20038;-93
2023/10/15 00:14:13;;;;;;;6.28;1.38;;;3.60;99.90;;;;;;4962178;29;20019;-94
2023/10/15 00:16:39;;;;;;;7.25;1.63;;;3.50;99.90;;;;;;4963451;29;20122;-94
2023/10/15 00:19:11;;;;;;;4.82;1.50;;;3.50;99.90;;;;;;4962752;29;20061;-94
2023/10/15 00:21:38;;;;;;;8.35;1.42;;;3.50;99.90;;;;;;4961602;28;20118;-94
2023/10/15 00:24:07;;;;;;;6.55;1.23;;;3.40;99.90;;;;;;4959474;28;20034;-93
2023/10/15 00:26:34;;;;;;;9.82;1.80;;;3.40;99.90;;;;;;4957594;29;20043;-93
2023/10/15 00:29:00;;;;;;;4.13;1.38;;;3.40;99.90;;;;;;4957182;29;20026;-93
2023/10/15 00:31:26;;;;;;;4.93;1.40;;;3.40;99.90;;;;;;4956255;29;20069;-92
2023/10/15 00:33:52;;;;;;;7.85;1.15;;;3.40;99.90;;;;;;4956795;29;20031;-94
2023/10/15 00:36:18;;;;;;;12.02;1.50;;;3.30;99.90;;;;;;4957056;28;20050;-92
2023/10/15 00:38:45;;;;;;;6.68;1.33;;;3.30;99.90;;;;;;4956431;29;20054;-94
2023/10/15 00:41:14;;;;;;;9.13;1.75;;;3.20;99.90;;;;;;4956370;29;20027;-93
2023/10/15 00:43:58;;;;;;;4.03;1.30;;;3.20;99.90;;;;;;4960839;29;20039;-93
2023/10/15 00:46:27;;;;;;;5.18;1.25;;;3.20;99.90;;;;;;4955554;29;20035;-92
2023/10/15 00:48:57;;;;;;;5.05;1.10;;;3.20;99.90;;;;;;4954844;29;20039;-93
2023/10/15 00:51:23;;;;;;;7.40;2.53;;;3.20;99.90;;;;;;4956317;28;20557;-94
2023/10/15 00:53:58;;;;;;;9.88;1.27;;;3.20;99.90;;;;;;4955120;29;20469;-92
2023/10/15 00:56:33;;;;;;;6.85;2.35;;;3.20;99.90;;;;;;4956318;28;20031;-92
2023/10/15 00:59:16;;;;;;;8.02;1.30;;;3.30;99.90;;;;;;4956034;28;20027;-92
2023/10/15 01:01:53;;;;;;;7.20;2.00;;;3.20;99.90;;;;;;4956165;28;20042;-93
2023/10/15 01:04:25;;;;;;;7.97;1.60;;;3.20;99.90;;;;;;4956461;29;20043;-93
2023/10/15 01:06:51;;;;;;;3.25;1.02;;;3.20;99.90;;;;;;4955977;28;20023;-89
2023/10/15 01:09:27;;;;;;;6.00;1.38;;;3.10;99.90;;;;;;4956211;28;20031;-94
2023/10/15 01:11:56;;;;;;;6.28;1.50;;;3.10;99.90;;;;;;4955904;29;20043;-93
2023/10/15 01:14:37;;;;;;;5.15;1.58;;;3.00;99.90;;;;;;4955814;29;20035;-95
2023/10/15 01:17:04;;;;;;;8.13;1.63;;;3.00;99.90;;;;;;4955660;29;20567;-93
2023/10/15 01:19:34;;;;;;;10.93;1.63;;;2.90;99.90;;;;;;4956317;28;20492;-92
2023/10/15 01:22:04;;;;;;;7.35;2.20;;;2.90;99.90;;;;;;4961027;28;20027;-91
2023/10/15 01:24:38;;;;;;;9.18;1.90;;;2.90;99.90;;;;;;4975623;28;20070;-92
2023/10/15 01:29:33;;;;;;;7.70;1.50;;;2.80;99.90;;;;;;4963036;28;20035;-94
2023/10/15 01:32:03;;;;;;;5.35;1.40;;;2.90;99.90;;;;;;4957745;28;20027;-92
2023/10/15 01:34:41;;;;;;;7.17;1.10;;;2.80;99.90;;;;;;4954702;29;20039;-94
2023/10/15 01:37:24;;;;;;;6.30;1.13;;;2.80;99.90;;;;;;4954965;29;20283;-92
2023/10/15 01:42:32;;;;;;;3.50;1.27;;;2.80;99.90;;;;;;4954771;29;20043;-91
2023/10/15 01:48:24;;;;;;;10.60;1.70;;;2.70;99.90;;;;;;4956361;28;20572;-93
2023/10/15 01:50:49;;;;;;;5.28;1.55;;;2.70;99.90;;;;;;4951599;28;20039;-93
2023/10/15 01:53:15;;;;;;;6.20;1.38;;;2.60;99.90;;;;;;4957397;29;20034;-93
2023/10/15 01:55:53;;;;;;;8.25;1.60;;;2.60;99.90;;;;;;4956807;28;20016;-94
2023/10/15 01:58:30;;;;;;;13.55;1.55;;;2.50;99.90;;;;;;4956031;29;20031;-93
2023/10/15 02:01:20;;;;;;;6.43;2.05;;;2.60;99.90;;;;;;4955908;28;20035;-94
2023/10/15 02:03:49;;;;;;;10.10;3.13;;;2.50;99.90;;;;;;4955675;28;20035;-92
2023/10/15 02:06:19;;;;;;;5.65;1.10;;;2.50;99.90;;;;;;4956533;29;20090;-94
2023/10/15 02:08:45;;;;;;;6.80;1.70;;;2.50;99.90;;;;;;4958317;28;20058;-92
2023/10/15 02:11:16;;;;;;;8.68;1.70;;;2.50;99.90;;;;;;4957656;28;20057;-94
2023/10/15 02:13:45;;;;;;;4.03;1.42;;;2.40;99.90;;;;;;4974116;28;20042;-94
2023/10/15 02:16:15;;;;;;;4.93;1.38;;;2.40;99.90;;;;;;4976824;29;20059;-92
2023/10/15 02:18:44;;;;;;;10.18;1.65;;;2.30;99.90;;;;;;4957419;29;20023;-93
2023/10/15 02:21:11;;;;;;;8.95;1.20;;;2.30;99.90;;;;;;4956169;29;20082;-93
2023/10/15 02:23:48;;;;;;;3.55;1.20;;;2.30;99.90;;;;;;4961392;29;20023;-93
2023/10/15 02:26:18;;;;;;;8.23;1.70;;;2.20;99.90;;;;;;4967722;29;20035;-93
2023/10/15 02:28:44;;;;;;;8.65;1.55;;;2.20;99.90;;;;;;4968914;28;20034;-93
2023/10/15 02:33:36;;;;;;;6.95;1.50;;;2.20;99.90;;;;;;4972266;28;20027;-93
2023/10/15 02:36:09;;;;;;;9.63;1.60;;;2.10;99.90;;;;;;4974853;29;20126;-93
2023/10/15 02:38:36;;;;;;;7.53;1.45;;;2.10;99.90;;;;;;4975900;29;20023;-91
2023/10/15 02:43:29;;;;;;;6.15;1.60;;;2.10;99.90;;;;;;4976603;28;20039;-92
2023/10/15 02:46:12;;;;;;;6.90;1.55;;;2.10;99.90;;;;;;4976337;28;20035;-94
2023/10/15 02:48:41;;;;;;;4.57;1.15;;;2.00;99.90;;;;;;4975435;29;20070;-92
2023/10/15 02:51:08;;;;;;;6.05;1.55;;;2.00;99.90;;;;;;4979468;28;20023;-93
2023/10/15 02:53:39;;;;;;;7.38;1.60;;;2.00;99.90;;;;;;4975959;29;20038;-94
2023/10/15 02:56:10;;;;;;;5.43;1.67;;;2.00;99.90;;;;;;4975757;28;20034;-93
2023/10/15 02:58:38;;;;;;;6.75;1.70;;;1.90;99.90;;;;;;4973738;29;20027;-94
2023/10/15 03:01:09;;;;;;;4.57;1.70;;;1.90;99.90;;;;;;4973488;28;20027;-93
2023/10/15 03:03:35;;;;;;;4.75;1.33;;;1.90;99.90;;;;;;4972848;29;20390;-93
2023/10/15 03:06:09;;;;;;;4.97;1.35;;;1.90;99.90;;;;;;4972323;29;20038;-93
2023/10/15 03:08:36;;;;;;;5.95;1.20;;;1.80;99.90;;;;;;4972786;29;20047;-91
2023/10/15 03:11:14;;;;;;;8.55;1.90;;;1.80;99.90;;;;;;4973826;29;20035;-93
2023/10/15 03:13:55;;;;;;;5.68;1.75;;;1.80;99.90;;;;;;4974682;29;20023;-93
2023/10/15 03:16:35;;;;;;;7.07;1.48;;;1.80;99.90;;;;;;4975236;28;20019;-91
2023/10/15 03:19:18;;;;;;;5.65;1.25;;;1.80;99.90;;;;;;4974636;29;20192;-93
2023/10/15 03:21:45;;;;;;;5.25;1.60;;;1.70;99.90;;;;;;4975653;28;20030;-92
2023/10/15 03:24:14;;;;;;;5.22;1.33;;;1.60;99.90;;;;;;4974936;28;20043;-93
2023/10/15 03:26:47;;;;;;;6.53;2.30;;;1.60;99.90;;;;;;4974063;29;20063;-90
2023/10/15 03:29:15;;;;;;;8.18;1.52;;;1.60;99.90;;;;;;4974184;29;20070;-93
2023/10/15 03:31:54;;;;;;;6.60;1.75;;;1.50;99.90;;;;;;4973458;29;20031;-92
2023/10/15 03:34:22;;;;;;;7.32;1.60;;;1.60;99.90;;;;;;4989335;28;20031;-93
2023/10/15 03:36:51;;;;;;;5.80;1.60;;;1.50;99.90;;;;;;4972120;29;20025;-92
2023/10/15 03:39:54;;;;;;;6.22;1.45;;;1.50;99.90;;;;;;4971668;29;20062;-93
2023/10/15 03:44:49;;;;;;;6.47;1.77;;;1.50;99.90;;;;;;4967246;28;20038;-94
2023/10/15 03:47:16;;;;;;;6.68;1.20;;;1.50;99.90;;;;;;4958260;28;20051;-93
2023/10/15 03:49:46;;;;;;;3.90;1.30;;;1.40;99.90;;;;;;4949498;29;20027;-93
2023/10/15 03:52:20;;;;;;;5.97;1.40;;;1.40;99.90;;;;;;4954596;29;20048;-91
2023/10/15 03:54:47;;;;;;;7.60;1.27;;;1.40;99.90;;;;;;4953803;29;20027;-91
2023/10/15 03:57:17;;;;;;;3.50;1.48;;;1.40;99.90;;;;;;4968938;29;20020;-93
2023/10/15 03:59:55;;;;;;;12.10;2.38;;;1.40;99.90;;;;;;4952171;29;20038;-93
2023/10/15 04:02:31;;;;;;;5.03;1.30;;;1.30;99.90;;;;;;4953034;29;20059;-91
2023/10/15 04:05:13;;;;;;;3.67;1.30;;;1.30;99.90;;;;;;4972242;28;20044;-94
2023/10/15 04:07:46;;;;;;;8.85;1.42;;;1.30;99.90;;;;;;4967789;29;20031;-92
2023/10/15 04:10:12;;;;;;;7.57;1.00;;;1.30;99.90;;;;;;4950000;29;20027;-92
2023/10/15 04:12:41;;;;;;;3.30;1.13;;;1.30;99.90;;;;;;4947426;29;20028;-94
2023/10/15 04:15:13;;;;;;;4.85;1.13;;;1.30;99.90;;;;;;4949359;29;20035;-93
2023/10/15 04:17:38;;;;;;;7.18;1.45;;;1.40;99.90;;;;;;4963796;29;20027;-94
2023/10/15 04:20:05;;;;;;;5.50;1.58;;;1.40;99.90;;;;;;4971185;29;20038;-91
2023/10/15 04:22:36;;;;;;;4.70;1.50;;;1.40;99.90;;;;;;4965783;29;20023;-93
2023/10/15 04:25:06;;;;;;;13.00;1.38;;;1.40;99.90;;;;;;4949794;29;20116;-92
2023/10/15 04:27:34;;;;;;;11.13;1.30;;;1.30;99.90;;;;;;4966535;29;20027;-92
2023/10/15 04:30:00;;;;;;;5.85;1.10;;;1.40;99.90;;;;;;4951894;29;20087;-92
2023/10/15 04:32:29;;;;;;;6.95;1.30;;;1.40;99.90;;;;;;4950280;29;20445;-92
2023/10/15 04:35:01;;;;;;;9.13;1.30;;;1.40;99.90;;;;;;4949855;29;20047;-93
2023/10/15 04:37:29;;;;;;;6.72;1.15;;;1.40;99.90;;;;;;4950918;29;20120;-93
2023/10/15 04:39:55;;;;;;;7.28;1.20;;;1.40;99.90;;;;;;4953902;29;20087;-92
2023/10/15 04:42:21;;;;;;;6.60;0.93;;;1.40;99.90;;;;;;4953371;29;20024;-92
2023/10/15 04:44:50;;;;;;;9.02;1.23;;;1.40;99.90;;;;;;4953964;29;20047;-93
2023/10/15 04:47:22;;;;;;;4.75;0.80;;;1.40;99.90;;;;;;4951249;29;20046;-92
2023/10/15 04:49:48;;;;;;;5.65;1.02;;;1.40;99.90;;;;;;4951374;29;20051;-93
2023/10/15 04:52:15;;;;;;;4.15;1.10;;;1.40;99.90;;;;;;4951066;29;20040;-93
2023/10/15 04:54:40;;;;;;;8.20;1.65;;;1.50;99.90;;;;;;4951269;29;20032;-93
2023/10/15 04:57:06;;;;;;;11.02;1.13;;;1.50;99.90;;;;;;4951401;29;20099;-93
2023/10/15 04:59:32;;;;;;;6.50;0.98;;;1.40;99.90;;;;;;4950218;29;20028;-91
2023/10/15 05:01:58;;;;;;;7.90;0.90;;;1.40;99.90;;;;;;4951029;29;20488;-92
2023/10/15 05:04:25;;;;;;;2.72;0.80;;;1.40;99.90;;;;;;4952010;29;20091;-93
2023/10/15 05:06:50;;;;;;;8.20;1.15;;;1.40;99.90;;;;;;4955362;29;20026;-92
2023/10/15 05:09:21;;;;;;;1.60;0.60;;;1.30;99.90;;;;;;4954761;29;20032;-93
2023/10/15 05:11:49;;;;;;;7.68;1.77;;;1.40;99.90;;;;;;4951752;29;20019;-92
2023/10/15 05:14:15;;;;;;;5.13;0.90;;;1.30;99.90;;;;;;4951745;29;20115;-93
2023/10/15 05:16:40;;;;;;;5.05;1.05;;;1.30;99.90;;;;;;4966141;29;20019;-90
2023/10/15 05:19:06;;;;;;;7.72;1.42;;;1.40;99.90;;;;;;4973573;29;20031;-91
2023/10/15 05:21:32;;;;;;;2.63;0.90;;;1.50;99.90;;;;;;4970684;29;20029;-92
2023/10/15 05:23:58;;;;;;;5.68;1.10;;;1.50;99.90;;;;;;4969342;28;20071;-93
2023/10/15 05:26:25;;;;;;;7.35;1.75;;;1.50;99.90;;;;;;4967570;29;20039;-93
2023/10/15 05:28:51;;;;;;;7.38;1.70;;;1.40;99.90;;;;;;4967478;28;20026;-93
2023/10/15 05:31:17;;;;;;;4.43;1.00;;;1.40;99.90;;;;;;4970997;29;20023;-92
2023/10/15 05:33:42;;;;;;;5.63;0.88;;;1.50;99.90;;;;;;4972219;29;20035;-94
2023/10/15 05:36:08;;;;;;;4.15;1.13;;;1.50;99.90;;;;;;4970393;29;20027;-92
2023/10/15 05:38:35;;;;;;;6.28;1.00;;;1.50;99.90;;;;;;4963820;29;20082;-93
2023/10/15 05:41:01;;;;;;;3.05;0.93;;;1.40;99.90;;;;;;4961280;29;20027;-93
2023/10/15 05:43:27;;;;;;;8.70;1.55;;;1.40;99.90;;;;;;4956424;29;20034;-94
2023/10/15 05:45:53;;;;;;;4.45;0.90;;;1.40;99.90;;;;;;4956665;29;20568;-93
2023/10/15 05:48:18;;;;;;;2.42;1.05;;;1.50;99.90;;;;;;4967158;29;20047;-92
2023/10/15 05:50:50;;;;;;;4.40;1.00;;;1.40;99.90;;;;;;4962458;29;20020;-94
2023/10/15 05:53:16;;;;;;;7.03;1.17;;;1.50;99.90;;;;;;4962749;29;20032;-93
2023/10/15 05:55:42;;;;;;;6.43;1.00;;;1.50;99.90;;;;;;4962269;29;20110;-93
2023/10/15 05:58:08;;;;;;;8.85;1.30;;;1.60;99.90;;;;;;4962080;28;20054;-94
2023/10/15 06:00:39;;;;;;;5.15;1.23;;;1.60;99.90;;;;;;4961246;29;20378;-93
2023/10/15 06:03:08;;;;;;;3.35;0.90;;;1.70;99.90;;;;;;4962367;28;20016;-93
2023/10/15 06:05:35;;;;;;;5.88;1.02;;;1.70;99.90;;;;;;4963825;29;20470;-94
2023/10/15 06:08:00;;;;;;;7.15;1.35;;;1.80;99.90;;;;;;4962890;28;20031;-93
2023/10/15 06:10:29;;;;;;;6.88;1.50;;;1.80;99.90;;;;;;4964305;29;20038;-94
2023/10/15 06:12:56;;;;;;;4.15;0.70;;;1.80;99.90;;;;;;4965175;29;20023;-94
2023/10/15 06:15:22;;;;;;;9.40;1.20;;;1.80;99.90;;;;;;4964785;29;20110;-94
2023/10/15 06:17:47;;;;;;;7.22;1.30;;;1.80;99.90;;;;;;4963015;29;20552;-94
2023/10/15 06:20:13;;;;;;;4.75;1.38;;;1.80;99.90;;;;;;4961372;29;20057;-94
2023/10/15 06:22:40;;;;;;;8.40;1.20;;;1.80;99.90;;;;;;4961131;28;20035;-93
2023/10/15 06:25:08;;;;;;;6.60;1.73;;;1.80;99.90;;;;;;4958945;29;20505;-94
2023/10/15 06:27:35;;;;;;;4.60;0.88;;;1.80;99.90;;;;;;4959363;28;20028;-94
2023/10/15 06:30:05;;;;;;;6.18;0.75;;;1.80;99.90;;;;;;4976278;28;20027;-94
2023/10/15 06:32:31;;;;;;;4.30;0.90;;;1.80;99.90;;;;;;4962557;29;20027;-94
2023/10/15 06:34:57;;;;;;;6.45;0.90;;;1.80;99.90;;;;;;4966026;28;20082;-93
2023/10/15 06:37:22;;;;;;;6.10;1.20;;;1.80;99.90;;;;;;4964178;29;20019;-95
2023/10/15 06:39:48;;;;;;;3.80;0.82;;;1.80;99.90;;;;;;4963043;29;20038;-93
2023/10/15 06:42:13;;;;;;;6.97;0.82;;;1.80;99.90;;;;;;4961983;29;20028;-93
2023/10/15 06:44:39;;;;;;;4.03;1.00;;;1.70;99.90;;;;;;4960873;29;20031;-93
2023/10/15 06:47:05;;;;;;;4.63;0.73;;;1.70;99.90;;;;;;4960829;28;20051;-94
2023/10/15 06:49:30;;;;;;;3.08;0.80;;;1.70;99.90;;;;;;4959031;29;20469;-94
2023/10/15 06:51:56;;;;;;;5.20;0.70;;;1.70;99.90;;;;;;4959992;29;20119;-93
2023/10/15 06:54:21;;;;;;;10.27;0.82;;;1.70;99.90;;;;;;4958325;29;20041;-94
2023/10/15 06:56:47;;;;;;;4.82;0.77;;;1.70;99.90;;;;;;4958464;29;20032;-93
2023/10/15 06:59:13;;;;;;;7.65;0.90;;;1.70;99.90;;;;;;4958611;29;20034;-93
2023/10/15 07:01:38;;;;;;;3.60;0.63;;;1.80;99.90;;;;;;4959386;29;20083;-92
2023/10/15 07:04:07;;;;;;;6.07;1.10;;;1.70;99.90;;;;;;4958173;29;20039;-91
2023/10/15 07:06:33;;;;;;;6.40;1.25;;;1.70;99.90;;;;;;4958438;28;20027;-93
2023/10/15 07:08:59;;;;;;;2.92;0.75;;;1.70;99.90;;;;;;4958634;28;20035;-93
2023/10/15 07:11:26;;;;;;;7.70;1.00;;;1.70;99.90;;;;;;4957573;29;20031;-94
2023/10/15 07:13:52;;;;;;;6.32;0.75;;;1.70;99.90;;;;;;4959238;29;20031;-92
2023/10/15 07:16:19;;;;;;;4.35;1.15;;;1.70;99.90;;;;;;4964288;29;20030;-90
2023/10/15 07:18:45;;;;;;;1.58;0.60;;;1.80;99.90;;;;;;4943894;29;20023;-94
2023/10/15 07:21:11;;;;;;;8.15;1.00;;;1.80;99.90;;;;;;4959248;28;20079;-95
2023/10/15 07:23:37;;;;;;;2.00;0.68;;;1.80;99.90;;;;;;4959334;29;20028;-94
2023/10/15 07:26:03;;;;;;;3.40;1.23;;;1.80;99.90;;;;;;4957883;28;20039;-94
2023/10/15 07:28:29;;;;;;;3.85;0.68;;;1.80;99.90;;;;;;4957140;29;20082;-95
2023/10/15 07:30:55;;;;;;;5.65;1.02;;;1.80;99.90;;;;;;4958170;28;20106;-92
2023/10/15 07:33:21;;;;;;;4.35;0.80;;;1.80;99.90;;;;;;4958014;28;20110;-91
2023/10/15 07:35:48;;;;;;;6.65;0.93;;;1.80;99.90;;;;;;4958011;29;20062;-94
2023/10/15 07:38:14;;;;;;;2.72;0.90;;;1.80;99.90;;;;;;4957461;28;20023;-94
2023/10/15 07:40:41;;;;;;;8.15;0.80;;;1.80;99.90;;;;;;4957831;28;20019;-95
2023/10/15 07:43:08;;;;;;;5.03;0.95;;;1.80;99.90;;;;;;4957562;28;20488;-94
2023/10/15 07:45:35;;;;;;;3.72;0.85;;;1.80;99.90;;;;;;4955949;29;20043;-95
2023/10/15 07:48:04;;;;;;;3.85;1.35;;;1.90;99.90;;;;;;4955594;29;20520;-93
2023/10/15 07:50:34;;;;;;;2.45;0.50;;;1.90;99.90;;;;;;4956960;28;20023;-93
2023/10/15 07:53:00;;;;;;;2.78;0.70;;;2.00;99.90;;;;;;4955137;29;20065;-93
2023/10/15 07:55:26;;;;;;;2.13;0.70;;;2.00;99.90;;;;;;4956474;28;20037;-94
2023/10/15 07:57:52;;;;;;;6.15;0.80;;;2.10;99.90;;;;;;4954831;29;20043;-93
2023/10/15 08:00:30;;;;;;;3.00;0.73;;;2.10;99.90;;;;;;4956065;29;20031;-95
2023/10/15 08:03:00;;;;;;;6.72;1.30;;;2.10;99.90;;;;;;4956042;29;20019;-92
2023/10/15 08:05:28;;;;;;;4.05;2.05;;;2.20;99.90;;;;;;4955618;29;20039;-93
2023/10/15 08:07:57;;;;;;;3.80;0.90;;;2.20;99.90;;;;;;4955625;29;20066;-90
2023/10/15 08:10:24;;;;;;;3.08;1.10;;;2.30;99.90;;;;;;4954760;29;20540;-93
2023/10/15 08:12:51;;;;;;;3.28;1.00;;;2.40;99.90;;;;;;4955263;29;20087;-91
2023/10/15 08:15:18;;;;;;;6.65;0.70;;;2.50;99.90;;;;;;4955383;28;20023;-94
2023/10/15 08:17:44;;;;;;;4.50;0.80;;;2.50;99.90;;;;;;4954881;28;20038;-94
2023/10/15 08:20:10;;;;;;;3.80;0.65;;;2.70;99.90;;;;;;4955326;28;20019;-93
2023/10/15 08:22:36;;;;;;;5.13;0.73;;;2.80;99.90;;;;;;4957389;28;20042;-93
2023/10/15 08:25:02;;;;;;;6.00;0.60;;;2.90;99.90;;;;;;4956632;28;20118;-93
2023/10/15 08:27:28;;;;;;;2.58;0.60;;;3.00;99.90;;;;;;4969361;28;20146;-91
2023/10/15 08:29:53;;;;;;;1.73;0.55;;;3.10;99.90;;;;;;4954224;28;20063;-92
2023/10/15 08:32:20;;;;;;;2.85;0.93;;;3.20;99.90;;;;;;4954169;29;20539;-93
2023/10/15 08:34:47;;;;;;;3.95;0.75;;;3.30;99.90;;;;;;4955857;29;20046;-92
2023/10/15 08:37:14;;;;;;;2.85;0.80;;;3.40;99.90;;;;;;4953623;29;20019;-90
2023/10/15 08:39:40;;;;;;;1.83;0.60;;;3.40;99.90;;;;;;4955046;28;20035;-91
2023/10/15 08:42:13;;;;;;;1.40;0.93;;;3.50;99.90;;;;;;4952674;29;20031;-89
2023/10/15 08:44:42;;;;;;;3.05;0.50;;;3.50;99.90;;;;;;4956335;29;20389;-90
2023/10/15 08:47:10;;;;;;;1.25;0.60;;;3.60;99.90;;;;;;4911545;28;1262482;-91
2023/10/15 08:49:39;;;;;;;1.52;0.40;;;3.60;99.90;;;;;;4954675;29;20031;-90
2023/10/15 08:52:06;;;;;;;2.78;0.80;;;3.70;99.90;;;;;;4953596;29;20111;-88
2023/10/15 08:54:38;;;;;;;2.95;0.90;;;3.80;99.90;;;;;;4950741;29;20019;-91
2023/10/15 08:57:07;;;;;;;2.35;0.40;;;3.90;99.90;;;;;;4954825;28;20050;-90
2023/10/15 08:59:33;;;;;;;1.85;0.57;;;3.90;99.90;;;;;;4953122;29;20027;-91
2023/10/15 09:01:59;;;;;;;4.15;0.68;;;4.00;99.90;;;;;;4957270;28;20022;-91
2023/10/15 09:04:27;;;;;;;3.55;0.75;;;4.10;99.90;;;;;;4956794;29;20086;-91
2023/10/15 09:06:54;;;;;;;0.95;0.50;;;4.20;99.90;;;;;;4953202;29;20033;-91
2023/10/15 09:09:20;;;;;;;2.58;0.60;;;4.30;99.90;;;;;;4953722;29;20131;-91
2023/10/15 09:11:45;;;;;;;5.72;1.10;;;4.50;99.90;;;;;;4953491;29;20035;-90
2023/10/15 09:14:13;;;;;;;2.65;0.57;;;4.50;99.90;;;;;;4953996;29;20019;-92
2023/10/15 09:16:46;;;;;;;2.13;0.55;;;4.70;99.90;;;;;;4953594;29;20035;-91
2023/10/15 09:19:13;;;;;;;4.25;0.73;;;4.80;99.90;;;;;;4951478;29;20027;-91
2023/10/15 09:21:39;;;;;;;5.63;0.77;;;4.90;99.90;;;;;;4954207;29;20102;-92
2023/10/15 09:24:06;;;;;;;1.92;0.65;;;5.10;99.90;;;;;;4953920;29;20118;-89
2023/10/15 09:26:39;;;;;;;1.25;0.60;;;5.30;99.90;;;;;;4954008;29;20130;-92
2023/10/15 09:29:22;;;;;;;3.97;0.63;;;5.60;99.90;;;;;;4954217;29;20031;-92
2023/10/15 09:31:50;;;;;;;3.90;1.67;;;5.80;99.90;;;;;;4948227;29;20058;-92
2023/10/15 09:34:16;;;;;;;1.70;0.65;;;6.10;99.90;;;;;;4953918;29;20050;-94
2023/10/15 09:36:42;;;;;;;0.68;0.43;;;6.50;99.90;;;;;;4958225;29;20035;-91
2023/10/15 09:39:12;;;;;;;3.80;0.70;;;6.80;99.90;;;;;;4962020;29;20038;-92
2023/10/15 09:41:43;;;;;;;5.68;0.60;;;7.20;99.90;;;;;;4962031;28;20053;-94
2023/10/15 09:44:15;;;;;;;3.33;0.70;;;7.60;99.90;;;;;;4966168;28;20027;-91
2023/10/15 09:46:44;;;;;;;1.35;0.60;;;7.90;99.90;;;;;;4963342;28;20027;-92
2023/10/15 09:49:12;;;;;;;2.38;0.60;;;8.30;99.90;;;;;;4959319;29;20035;-92
2023/10/15 09:51:39;;;;;;;3.45;0.63;;;8.60;99.90;;;;;;4962368;29;20049;-92
2023/10/15 09:54:10;;;;;;;2.28;0.57;;;9.00;99.90;;;;;;4959925;29;20019;-94
2023/10/15 09:56:38;;;;;;;1.48;0.88;;;9.20;99.90;;;;;;4960445;28;20110;-93
2023/10/15 09:59:03;;;;;;;1.90;0.60;;;9.60;99.90;;;;;;4960201;28;20381;-94
2023/10/15 10:01:31;;;;;;;3.42;0.80;;;9.90;99.90;;;;;;4950729;29;20019;-93
2023/10/15 10:04:45;;;;;;;2.55;0.52;;;10.20;99.90;;;;;;4950763;29;20031;-92
2023/10/15 10:07:23;;;;;;;1.63;0.80;;;10.50;99.90;;;;;;4919226;29;20039;-94
2023/10/15 10:10:23;;;;;;;2.75;0.63;;;10.80;99.90;;;;;;4918862;29;20028;-93
2023/10/15 10:13:15;;;;;;;1.83;0.60;;;11.10;98.90;;;;;;4917142;29;20694;-93
2023/10/15 10:15:54;;;;;;;3.08;0.60;;;11.40;96.30;;;;;;4915487;29;20032;-92
2023/10/15 10:18:21;;;;;;;3.88;1.15;;;11.60;95.10;;;;;;4900591;29;20063;-93
2023/10/15 10:20:48;;;;;;;4.32;1.55;;;11.80;93.60;;;;;;4901102;29;20039;-94
2023/10/15 10:23:14;;;;;;;2.88;1.10;;;11.90;92.10;;;;;;4902346;29;20148;-92
2023/10/15 10:25:42;;;;;;;2.83;0.73;;;12.10;90.40;;;;;;4912368;29;20048;-94
2023/10/15 10:28:11;;;;;;;2.50;0.90;;;12.10;87.80;;;;;;4917230;29;20032;-93
2023/10/15 10:30:39;;;;;;;1.85;0.80;;;12.10;86.10;;;;;;4899624;29;20147;-93
2023/10/15 10:33:05;;;;;;;2.55;0.50;;;12.30;84.80;;;;;;4915714;29;20348;-92
2023/10/15 10:35:44;;;;;;;2.30;0.80;;;12.40;84.30;;;;;;4907083;29;20478;-93
2023/10/15 10:38:18;;;;;;;2.20;0.70;;;12.60;83.30;;;;;;4939941;29;20040;-93
2023/10/15 10:41:03;;;;;;;2.15;1.08;;;12.70;81.90;;;;;;4956723;29;20070;-93
2023/10/15 10:43:29;;;;;;;1.40;0.40;;;12.90;80.70;;;;;;4953839;29;20110;-91
2023/10/15 10:45:59;;;;;;;1.98;0.50;;;12.90;78.80;;;;;;4955082;28;20208;-94
2023/10/15 10:48:29;;;;;;;1.00;0.38;;;12.90;77.90;;;;;;4953431;29;20043;-93
2023/10/15 10:51:15;;;;;;;2.05;0.50;;;12.90;75.90;;;;;;4956630;28;20090;-93
2023/10/15 10:53:56;;;;;;;0.93;0.30;;;12.90;74.80;;;;;;4956869;28;20039;-93
2023/10/15 10:56:23;;;;;;;0.95;0.50;;;13.00;74.30;;;;;;4974538;28;20114;-95
2023/10/15 10:58:54;;;;;;;3.95;1.48;;;13.00;73.90;;;;;;4960901;29;20042;-95
2023/10/15 11:01:21;;;;;;;1.92;0.80;;;13.20;73.80;;;;;;4965558;29;20055;-92
2023/10/15 11:03:47;;;;;;;2.42;0.80;;;13.30;73.70;;;;;;4963288;29;20096;-95
2023/10/15 11:06:15;;;;;;;3.30;0.90;;;13.50;73.90;;;;;;4962128;29;20046;-93
2023/10/15 11:08:41;;;;;;;5.13;0.95;;;13.70;73.60;;;;;;4958613;28;20155;-93
2023/10/15 11:11:09;;;;;;;1.83;0.60;;;13.80;72.80;;;;;;4958300;28;20125;-94
2023/10/15 11:13:34;;;;;;;1.10;0.47;;;14.10;72.80;;;;;;4956026;29;20030;-96
2023/10/15 11:16:00;;;;;;;1.70;0.70;;;14.20;71.80;;;;;;4957320;29;20031;-93
2023/10/15 11:18:26;;;;;;;3.42;0.55;;;14.20;70.90;;;;;;4953562;29;20133;-92
2023/10/15 11:20:52;;;;;;;2.10;0.50;;;14.20;69.90;;;;;;4956662;28;20074;-93
2023/10/15 11:23:23;;;;;;;1.65;0.57;;;14.20;69.20;;;;;;4955884;29;20047;-91
2023/10/15 11:25:58;;;;;;;2.70;0.60;;;14.10;68.50;;;;;;4955092;29;20027;-94
2023/10/15 11:28:24;;;;;;;4.55;1.08;;;14.00;68.40;;;;;;4957910;29;20030;-93
2023/10/15 11:30:50;;;;;;;1.17;0.63;;;13.90;68.50;;;;;;4957883;29;20050;-93
2023/10/15 11:33:19;;;;;;;1.88;0.80;;;13.90;68.70;;;;;;4956554;29;20024;-94
2023/10/15 11:35:53;;;;;;;1.73;0.90;;;14.00;68.80;;;;;;4956922;29;20030;-94
2023/10/15 11:38:20;;;;;;;2.08;0.73;;;14.10;68.50;;;;;;4958548;28;20027;-93
2023/10/15 11:40:46;;;;;;;1.63;0.50;;;14.10;68.50;;;;;;4962242;29;20422;-92
2023/10/15 11:43:19;;;;;;;2.70;0.70;;;14.20;67.90;;;;;;4957797;29;20046;-91
2023/10/15 11:45:48;;;;;;;3.83;0.70;;;14.20;67.80;;;;;;4957807;28;20083;-93
2023/10/15 11:48:14;;;;;;;2.30;0.70;;;14.20;67.60;;;;;;4958537;28;20047;-94
2023/10/15 11:50:41;;;;;;;2.65;0.60;;;14.30;67.70;;;;;;4957941;28;20082;-94
2023/10/15 11:53:23;;;;;;;3.28;0.80;;;14.50;68.00;;;;;;4956757;29;20027;-92
2023/10/15 11:55:53;;;;;;;4.88;1.40;;;14.80;67.70;;;;;;4956956;28;20118;-92
2023/10/15 11:58:19;;;;;;;5.67;1.63;;;14.90;67.10;;;;;;4956004;29;20027;-93
2023/10/15 12:00:51;;;;;;;3.53;1.10;;;15.10;67.10;;;;;;4957540;28;20106;-94
2023/10/15 12:03:18;;;;;;;1.50;0.68;;;15.20;66.80;;;;;;4956719;28;20023;-93
2023/10/15 12:05:44;;;;;;;1.60;0.70;;;15.40;66.50;;;;;;4955903;28;20548;-92
2023/10/15 12:08:13;;;;;;;2.40;0.82;;;15.50;66.30;;;;;;4956312;28;20027;-91
2023/10/15 12:10:45;;;;;;;3.33;0.50;;;15.60;65.70;;;;;;4956751;28;20031;-92
2023/10/15 12:13:14;;;;;;;1.83;0.52;;;15.80;66.30;;;;;;4952875;29;20047;-91
2023/10/15 12:15:40;;;;;;;6.00;0.90;;;16.00;65.90;;;;;;4948349;28;20034;-92
2023/10/15 12:18:06;;;;;;;2.38;0.80;;;16.10;65.40;;;;;;4938215;29;20035;-91
2023/10/15 12:20:32;;;;;;;2.92;0.95;;;16.20;65.00;;;;;;4938171;29;20170;-92
2023/10/15 12:22:58;;;;;;;3.40;1.00;;;16.00;65.20;;;;;;4936064;29;20035;-92
2023/10/15 12:25:23;;;;;;;2.67;1.00;;;15.80;64.60;;;;;;4937234;29;20042;-90
2023/10/15 12:27:49;;;;;;;3.80;0.82;;;15.80;65.30;;;;;;4937654;29;20389;-92
2023/10/15 12:30:23;;;;;;;5.25;0.85;;;16.00;66.50;;;;;;4937117;29;20059;-92
2023/10/15 12:32:58;;;;;;;1.52;0.60;;;16.10;66.10;;;;;;4937387;29;20103;-91
2023/10/15 12:35:24;;;;;;;1.75;0.68;;;16.30;65.60;;;;;;4935972;29;20042;-91
2023/10/15 12:37:58;;;;;;;4.10;1.33;;;16.40;65.30;;;;;;4936069;29;20059;-92
2023/10/15 12:40:30;;;;;;;7.07;0.85;;;16.30;64.40;;;;;;4949192;29;20103;-92
2023/10/15 12:42:55;;;;;;;3.88;1.10;;;16.10;64.40;;;;;;4957503;29;20098;-90
2023/10/15 12:45:22;;;;;;;2.28;1.00;;;16.20;65.10;;;;;;4954375;29;20481;-91
2023/10/15 12:47:51;;;;;;;3.67;1.27;;;16.30;64.80;;;;;;4954481;29;20051;-91
2023/10/15 12:50:17;;;;;;;4.88;1.00;;;16.40;64.70;;;;;;4955533;28;20034;-91
2023/10/15 12:52:47;;;;;;;1.95;0.93;;;16.50;64.90;;;;;;4955430;29;20023;-91
2023/10/15 12:55:17;;;;;;;3.40;0.88;;;16.40;64.00;;;;;;4956079;28;20015;-90
2023/10/15 12:57:42;;;;;;;3.78;0.88;;;16.30;63.80;;;;;;4955993;29;20027;-91
2023/10/15 13:00:17;;;;;;;3.20;0.88;;;16.20;64.30;;;;;;4960586;29;20038;-91
2023/10/15 13:02:44;;;;;;;2.17;1.00;;;16.20;64.30;;;;;;4958986;29;20083;-92
2023/10/15 13:05:10;;;;;;;3.47;1.40;;;16.30;64.60;;;;;;4960608;28;20031;-91
2023/10/15 13:07:35;;;;;;;2.15;0.70;;;16.50;64.70;;;;;;4959913;28;20110;-91
2023/10/15 13:10:02;;;;;;;7.20;0.88;;;16.60;64.40;;;;;;4955724;29;20031;-91
2023/10/15 13:12:28;;;;;;;4.93;1.27;;;16.60;64.40;;;;;;4956960;28;20031;-90
2023/10/15 13:14:54;;;;;;;4.07;1.05;;;16.70;64.40;;;;;;4957597;28;20381;-93
2023/10/15 13:17:20;;;;;;;8.18;1.27;;;16.90;64.50;;;;;;4955303;28;20034;-93
2023/10/15 13:19:46;;;;;;;4.13;1.00;;;16.90;64.10;;;;;;4956184;28;20031;-92